Аэропорт: Элиста. Элиста

ICAO: URWI

METAR:
2019-09-21 16:00:00
URWI 211600Z 27006MPS CAVOK 10/05 Q1015 R27/190060 TEMPO 28013G20MPS 1000 TSRA SCT003 BKN020CB
METAR:
2019-09-21 14:00:00
TAF URWI 211400Z 2115/2124 26003G09MPS 9999 SCT020CB TEMPO 2115/2124 27007G14MPS 3100 -SHRA BR SCT011 BKN020CB PROB40 TEMPO 2115/2124 -TSRA